sensor_id;sensor_type;location;lat;lon;timestamp;P1;durP1;ratioP1;P2;durP2;ratioP2
16892;SDS011;8563;52.242;9.098;2023-04-15T00:00:05;5.13;;;3.90;;
16892;SDS011;8563;52.242;9.098;2023-04-15T00:02:46;4.70;;;4.20;;
16892;SDS011;8563;52.242;9.098;2023-04-15T00:05:20;4.37;;;3.97;;
16892;SDS011;8563;52.242;9.098;2023-04-15T00:07:52;4.47;;;4.07;;
16892;SDS011;8563;52.242;9.098;2023-04-15T00:10:24;3.80;;;3.50;;
16892;SDS011;8563;52.242;9.098;2023-04-15T00:12:56;4.63;;;3.97;;
16892;SDS011;8563;52.242;9.098;2023-04-15T00:15:29;4.40;;;4.00;;
16892;SDS011;8563;52.242;9.098;2023-04-15T00:18:01;4.40;;;4.00;;
16892;SDS011;8563;52.242;9.098;2023-04-15T00:20:35;6.50;;;4.20;;
16892;SDS011;8563;52.242;9.098;2023-04-15T00:23:07;4.03;;;3.53;;
16892;SDS011;8563;52.242;9.098;2023-04-15T00:25:39;4.97;;;4.47;;
16892;SDS011;8563;52.242;9.098;2023-04-15T00:28:11;4.27;;;3.83;;
16892;SDS011;8563;52.242;9.098;2023-04-15T00:30:44;4.40;;;4.00;;
16892;SDS011;8563;52.242;9.098;2023-04-15T00:33:16;6.20;;;4.10;;
16892;SDS011;8563;52.242;9.098;2023-04-15T00:35:49;6.13;;;4.77;;
16892;SDS011;8563;52.242;9.098;2023-04-15T00:38:22;4.90;;;4.40;;
16892;SDS011;8563;52.242;9.098;2023-04-15T00:40:55;5.03;;;4.50;;
16892;SDS011;8563;52.242;9.098;2023-04-15T00:43:27;5.63;;;5.10;;
16892;SDS011;8563;52.242;9.098;2023-04-15T00:46:00;5.17;;;4.27;;
16892;SDS011;8563;52.242;9.098;2023-04-15T00:48:34;8.07;;;4.50;;
16892;SDS011;8563;52.242;9.098;2023-04-15T00:51:09;6.47;;;4.40;;
16892;SDS011;8563;52.242;9.098;2023-04-15T00:53:42;5.30;;;4.70;;
16892;SDS011;8563;52.242;9.098;2023-04-15T00:56:14;6.17;;;5.27;;
16892;SDS011;8563;52.242;9.098;2023-04-15T00:58:47;6.00;;;5.40;;
16892;SDS011;8563;52.242;9.098;2023-04-15T01:01:19;5.73;;;5.07;;
16892;SDS011;8563;52.242;9.098;2023-04-15T01:03:52;5.87;;;5.37;;
16892;SDS011;8563;52.242;9.098;2023-04-15T01:06:27;6.07;;;5.10;;
16892;SDS011;8563;52.242;9.098;2023-04-15T01:08:59;5.57;;;5.07;;
16892;SDS011;8563;52.242;9.098;2023-04-15T01:11:32;5.30;;;4.80;;
16892;SDS011;8563;52.242;9.098;2023-04-15T01:14:05;5.70;;;5.20;;
16892;SDS011;8563;52.242;9.098;2023-04-15T01:16:40;5.47;;;4.63;;
16892;SDS011;8563;52.242;9.098;2023-04-15T01:19:12;5.57;;;4.60;;
16892;SDS011;8563;52.242;9.098;2023-04-15T01:21:48;5.70;;;4.83;;
16892;SDS011;8563;52.242;9.098;2023-04-15T01:24:21;5.10;;;4.60;;
16892;SDS011;8563;52.242;9.098;2023-04-15T01:26:56;6.23;;;4.83;;
16892;SDS011;8563;52.242;9.098;2023-04-15T01:29:29;5.53;;;4.77;;
16892;SDS011;8563;52.242;9.098;2023-04-15T01:32:01;5.40;;;4.90;;
16892;SDS011;8563;52.242;9.098;2023-04-15T01:34:33;5.67;;;4.97;;
16892;SDS011;8563;52.242;9.098;2023-04-15T01:37:06;5.17;;;4.77;;
16892;SDS011;8563;52.242;9.098;2023-04-15T01:39:38;5.77;;;5.17;;
16892;SDS011;8563;52.242;9.098;2023-04-15T01:42:12;6.70;;;5.27;;
16892;SDS011;8563;52.242;9.098;2023-04-15T01:44:44;6.13;;;5.53;;
16892;SDS011;8563;52.242;9.098;2023-04-15T01:47:16;5.70;;;5.20;;
16892;SDS011;8563;52.242;9.098;2023-04-15T01:49:48;5.30;;;4.70;;
16892;SDS011;8563;52.242;9.098;2023-04-15T01:52:20;6.50;;;5.73;;
16892;SDS011;8563;52.242;9.098;2023-04-15T01:54:53;6.17;;;5.50;;
16892;SDS011;8563;52.242;9.098;2023-04-15T01:57:27;5.57;;;5.07;;
16892;SDS011;8563;52.242;9.098;2023-04-15T01:59:59;7.07;;;6.00;;
16892;SDS011;8563;52.242;9.098;2023-04-15T02:02:31;5.57;;;5.07;;
16892;SDS011;8563;52.242;9.098;2023-04-15T02:05:05;6.27;;;5.67;;
16892;SDS011;8563;52.242;9.098;2023-04-15T02:07:38;5.60;;;5.10;;
16892;SDS011;8563;52.242;9.098;2023-04-15T02:10:11;6.30;;;5.70;;
16892;SDS011;8563;52.242;9.098;2023-04-15T02:12:47;6.70;;;6.00;;
16892;SDS011;8563;52.242;9.098;2023-04-15T02:15:19;6.17;;;5.57;;
16892;SDS011;8563;52.242;9.098;2023-04-15T02:17:53;6.47;;;5.73;;
16892;SDS011;8563;52.242;9.098;2023-04-15T02:20:26;6.30;;;5.70;;
16892;SDS011;8563;52.242;9.098;2023-04-15T02:23:01;6.17;;;5.30;;
16892;SDS011;8563;52.242;9.098;2023-04-15T02:25:36;7.27;;;5.57;;
16892;SDS011;8563;52.242;9.098;2023-04-15T02:28:10;7.07;;;5.53;;
16892;SDS011;8563;52.242;9.098;2023-04-15T02:30:43;6.50;;;5.83;;
16892;SDS011;8563;52.242;9.098;2023-04-15T02:33:20;7.17;;;6.30;;
16892;SDS011;8563;52.242;9.098;2023-04-15T02:35:52;7.93;;;5.83;;
16892;SDS011;8563;52.242;9.098;2023-04-15T02:38:24;5.70;;;5.20;;
16892;SDS011;8563;52.242;9.098;2023-04-15T02:40:57;7.03;;;6.33;;
16892;SDS011;8563;52.242;9.098;2023-04-15T02:43:30;6.50;;;5.90;;
16892;SDS011;8563;52.242;9.098;2023-04-15T02:46:03;6.40;;;5.70;;
16892;SDS011;8563;52.242;9.098;2023-04-15T02:48:35;5.90;;;5.30;;
16892;SDS011;8563;52.242;9.098;2023-04-15T02:51:14;6.23;;;5.63;;
16892;SDS011;8563;52.242;9.098;2023-04-15T02:53:49;6.00;;;5.40;;
16892;SDS011;8563;52.242;9.098;2023-04-15T02:56:21;6.60;;;6.00;;
16892;SDS011;8563;52.242;9.098;2023-04-15T02:58:55;7.23;;;5.63;;
16892;SDS011;8563;52.242;9.098;2023-04-15T03:01:27;6.50;;;5.90;;
16892;SDS011;8563;52.242;9.098;2023-04-15T03:03:59;7.57;;;6.87;;
16892;SDS011;8563;52.242;9.098;2023-04-15T03:06:31;7.17;;;6.47;;
16892;SDS011;8563;52.242;9.098;2023-04-15T03:09:04;7.07;;;6.37;;
16892;SDS011;8563;52.242;9.098;2023-04-15T03:11:39;7.30;;;6.57;;
16892;SDS011;8563;52.242;9.098;2023-04-15T03:14:14;8.03;;;6.47;;
16892;SDS011;8563;52.242;9.098;2023-04-15T03:16:49;6.77;;;6.07;;
16892;SDS011;8563;52.242;9.098;2023-04-15T03:19:22;7.87;;;7.17;;
16892;SDS011;8563;52.242;9.098;2023-04-15T03:21:54;7.37;;;6.67;;
16892;SDS011;8563;52.242;9.098;2023-04-15T03:24:26;6.90;;;6.20;;
16892;SDS011;8563;52.242;9.098;2023-04-15T03:27:00;6.13;;;5.63;;
16892;SDS011;8563;52.242;9.098;2023-04-15T03:29:34;7.07;;;6.27;;
16892;SDS011;8563;52.242;9.098;2023-04-15T03:32:07;6.67;;;6.07;;
16892;SDS011;8563;52.242;9.098;2023-04-15T03:34:39;7.13;;;6.43;;
16892;SDS011;8563;52.242;9.098;2023-04-15T03:37:12;7.23;;;6.53;;
16892;SDS011;8563;52.242;9.098;2023-04-15T03:39:44;8.87;;;6.50;;
16892;SDS011;8563;52.242;9.098;2023-04-15T03:42:16;8.20;;;7.40;;
16892;SDS011;8563;52.242;9.098;2023-04-15T03:44:50;7.37;;;6.70;;
16892;SDS011;8563;52.242;9.098;2023-04-15T03:47:22;8.27;;;7.47;;
16892;SDS011;8563;52.242;9.098;2023-04-15T03:49:54;7.67;;;6.87;;
16892;SDS011;8563;52.242;9.098;2023-04-15T03:52:27;8.37;;;7.23;;
16892;SDS011;8563;52.242;9.098;2023-04-15T03:54:59;8.60;;;7.80;;
16892;SDS011;8563;52.242;9.098;2023-04-15T03:57:31;9.03;;;7.57;;
16892;SDS011;8563;52.242;9.098;2023-04-15T04:00:09;7.60;;;6.90;;
16892;SDS011;8563;52.242;9.098;2023-04-15T04:02:42;9.03;;;7.10;;
16892;SDS011;8563;52.242;9.098;2023-04-15T04:05:15;7.27;;;6.53;;
16892;SDS011;8563;52.242;9.098;2023-04-15T04:07:47;7.23;;;6.53;;
16892;SDS011;8563;52.242;9.098;2023-04-15T04:10:20;7.23;;;6.57;;
16892;SDS011;8563;52.242;9.098;2023-04-15T04:12:52;9.03;;;8.10;;
16892;SDS011;8563;52.242;9.098;2023-04-15T04:15:25;9.63;;;8.70;;
16892;SDS011;8563;52.242;9.098;2023-04-15T04:17:57;9.63;;;8.73;;
16892;SDS011;8563;52.242;9.098;2023-04-15T04:20:30;10.47;;;9.47;;
16892;SDS011;8563;52.242;9.098;2023-04-15T04:23:02;11.70;;;10.10;;
16892;SDS011;8563;52.242;9.098;2023-04-15T04:25:35;10.60;;;9.50;;
16892;SDS011;8563;52.242;9.098;2023-04-15T04:28:07;10.33;;;9.33;;
16892;SDS011;8563;52.242;9.098;2023-04-15T04:30:40;10.13;;;9.00;;
16892;SDS011;8563;52.242;9.098;2023-04-15T04:33:13;9.27;;;8.37;;
16892;SDS011;8563;52.242;9.098;2023-04-15T04:35:45;9.60;;;8.70;;
16892;SDS011;8563;52.242;9.098;2023-04-15T04:38:17;10.67;;;9.57;;
16892;SDS011;8563;52.242;9.098;2023-04-15T04:40:49;10.97;;;9.87;;
16892;SDS011;8563;52.242;9.098;2023-04-15T04:43:22;10.17;;;9.13;;
16892;SDS011;8563;52.242;9.098;2023-04-15T04:45:56;10.50;;;9.50;;
16892;SDS011;8563;52.242;9.098;2023-04-15T04:48:28;13.03;;;11.07;;
16892;SDS011;8563;52.242;9.098;2023-04-15T04:51:00;10.90;;;9.80;;
16892;SDS011;8563;52.242;9.098;2023-04-15T04:53:33;11.63;;;10.53;;
16892;SDS011;8563;52.242;9.098;2023-04-15T04:56:06;11.50;;;10.33;;
16892;SDS011;8563;52.242;9.098;2023-04-15T04:58:39;11.10;;;10.00;;
16892;SDS011;8563;52.242;9.098;2023-04-15T05:01:13;11.60;;;10.50;;
16892;SDS011;8563;52.242;9.098;2023-04-15T05:03:45;11.87;;;10.67;;
16892;SDS011;8563;52.242;9.098;2023-04-15T05:06:17;11.40;;;10.27;;
16892;SDS011;8563;52.242;9.098;2023-04-15T05:08:50;12.17;;;10.37;;
16892;SDS011;8563;52.242;9.098;2023-04-15T05:11:22;11.57;;;10.47;;
16892;SDS011;8563;52.242;9.098;2023-04-15T05:13:54;12.67;;;11.37;;
16892;SDS011;8563;52.242;9.098;2023-04-15T05:16:28;10.93;;;9.83;;
16892;SDS011;8563;52.242;9.098;2023-04-15T05:19:01;13.10;;;11.13;;
16892;SDS011;8563;52.242;9.098;2023-04-15T05:21:33;12.67;;;11.27;;
16892;SDS011;8563;52.242;9.098;2023-04-15T05:24:05;14.90;;;11.23;;
16892;SDS011;8563;52.242;9.098;2023-04-15T05:26:37;12.50;;;11.20;;
16892;SDS011;8563;52.242;9.098;2023-04-15T05:29:09;13.40;;;11.70;;
16892;SDS011;8563;52.242;9.098;2023-04-15T05:31:43;13.07;;;11.67;;
16892;SDS011;8563;52.242;9.098;2023-04-15T05:34:15;12.57;;;11.37;;
16892;SDS011;8563;52.242;9.098;2023-04-15T05:36:47;12.20;;;11.10;;
16892;SDS011;8563;52.242;9.098;2023-04-15T05:39:19;13.43;;;12.03;;
16892;SDS011;8563;52.242;9.098;2023-04-15T05:41:52;14.00;;;12.57;;
16892;SDS011;8563;52.242;9.098;2023-04-15T05:44:24;12.40;;;11.20;;
16892;SDS011;8563;52.242;9.098;2023-04-15T05:46:58;12.63;;;11.17;;
16892;SDS011;8563;52.242;9.098;2023-04-15T05:49:30;12.80;;;11.53;;
16892;SDS011;8563;52.242;9.098;2023-04-15T05:52:02;13.37;;;12.07;;
16892;SDS011;8563;52.242;9.098;2023-04-15T05:54:34;14.37;;;12.87;;
16892;SDS011;8563;52.242;9.098;2023-04-15T05:57:07;12.90;;;11.63;;
16892;SDS011;8563;52.242;9.098;2023-04-15T05:59:39;13.47;;;12.07;;
16892;SDS011;8563;52.242;9.098;2023-04-15T06:02:12;13.23;;;11.93;;
16892;SDS011;8563;52.242;9.098;2023-04-15T06:04:45;13.00;;;11.70;;
16892;SDS011;8563;52.242;9.098;2023-04-15T06:07:18;13.93;;;12.53;;
16892;SDS011;8563;52.242;9.098;2023-04-15T06:09:50;14.23;;;12.70;;
16892;SDS011;8563;52.242;9.098;2023-04-15T06:12:22;13.60;;;12.30;;
16892;SDS011;8563;52.242;9.098;2023-04-15T06:14:55;13.97;;;12.57;;
16892;SDS011;8563;52.242;9.098;2023-04-15T06:17:28;13.87;;;12.47;;
16892;SDS011;8563;52.242;9.098;2023-04-15T06:20:00;13.43;;;12.17;;
16892;SDS011;8563;52.242;9.098;2023-04-15T06:22:33;13.60;;;12.10;;
16892;SDS011;8563;52.242;9.098;2023-04-15T06:25:07;15.03;;;12.40;;
16892;SDS011;8563;52.242;9.098;2023-04-15T06:27:40;14.17;;;12.40;;
16892;SDS011;8563;52.242;9.098;2023-04-15T06:30:12;16.00;;;11.90;;
16892;SDS011;8563;52.242;9.098;2023-04-15T06:32:45;13.90;;;12.50;;
16892;SDS011;8563;52.242;9.098;2023-04-15T06:35:18;13.00;;;11.70;;
16892;SDS011;8563;52.242;9.098;2023-04-15T06:37:50;13.03;;;11.77;;
16892;SDS011;8563;52.242;9.098;2023-04-15T06:40:22;12.63;;;11.33;;
16892;SDS011;8563;52.242;9.098;2023-04-15T06:42:54;14.10;;;12.80;;
16892;SDS011;8563;52.242;9.098;2023-04-15T06:45:27;15.20;;;13.70;;
16892;SDS011;8563;52.242;9.098;2023-04-15T06:48:01;16.10;;;13.93;;
16892;SDS011;8563;52.242;9.098;2023-04-15T06:50:34;14.87;;;13.37;;
16892;SDS011;8563;52.242;9.098;2023-04-15T06:53:06;15.10;;;13.50;;
16892;SDS011;8563;52.242;9.098;2023-04-15T06:55:39;14.27;;;12.77;;
16892;SDS011;8563;52.242;9.098;2023-04-15T06:58:11;14.17;;;12.77;;
16892;SDS011;8563;52.242;9.098;2023-04-15T07:00:44;13.20;;;11.90;;
16892;SDS011;8563;52.242;9.098;2023-04-15T07:03:17;14.67;;;13.17;;
16892;SDS011;8563;52.242;9.098;2023-04-15T07:05:49;14.70;;;13.03;;
16892;SDS011;8563;52.242;9.098;2023-04-15T07:08:21;12.37;;;11.07;;
16892;SDS011;8563;52.242;9.098;2023-04-15T07:10:54;13.67;;;12.30;;
16892;SDS011;8563;52.242;9.098;2023-04-15T07:13:29;13.47;;;12.17;;
16892;SDS011;8563;52.242;9.098;2023-04-15T07:16:03;15.43;;;13.80;;
16892;SDS011;8563;52.242;9.098;2023-04-15T07:18:37;13.83;;;12.43;;
16892;SDS011;8563;52.242;9.098;2023-04-15T07:21:09;13.97;;;12.63;;
16892;SDS011;8563;52.242;9.098;2023-04-15T07:23:42;14.57;;;13.07;;
16892;SDS011;8563;52.242;9.098;2023-04-15T07:26:14;14.17;;;12.67;;
16892;SDS011;8563;52.242;9.098;2023-04-15T07:28:46;13.37;;;11.97;;
16892;SDS011;8563;52.242;9.098;2023-04-15T07:31:19;14.27;;;12.53;;
16892;SDS011;8563;52.242;9.098;2023-04-15T07:33:53;13.97;;;12.10;;
16892;SDS011;8563;52.242;9.098;2023-04-15T07:36:26;11.47;;;10.27;;
16892;SDS011;8563;52.242;9.098;2023-04-15T07:38:58;11.77;;;10.57;;
16892;SDS011;8563;52.242;9.098;2023-04-15T07:41:32;11.63;;;10.43;;
16892;SDS011;8563;52.242;9.098;2023-04-15T07:44:04;12.30;;;10.90;;
16892;SDS011;8563;52.242;9.098;2023-04-15T07:46:36;10.30;;;9.37;;
16892;SDS011;8563;52.242;9.098;2023-04-15T07:49:10;10.93;;;9.93;;
16892;SDS011;8563;52.242;9.098;2023-04-15T07:51:42;12.07;;;10.87;;
16892;SDS011;8563;52.242;9.098;2023-04-15T07:54:15;11.23;;;10.13;;
16892;SDS011;8563;52.242;9.098;2023-04-15T07:56:47;12.20;;;11.10;;
16892;SDS011;8563;52.242;9.098;2023-04-15T07:59:19;11.97;;;10.73;;
16892;SDS011;8563;52.242;9.098;2023-04-15T08:01:51;11.10;;;10.00;;
16892;SDS011;8563;52.242;9.098;2023-04-15T08:04:25;12.03;;;10.83;;
16892;SDS011;8563;52.242;9.098;2023-04-15T08:06:57;11.17;;;10.00;;
16892;SDS011;8563;52.242;9.098;2023-04-15T08:09:30;10.73;;;9.73;;
16892;SDS011;8563;52.242;9.098;2023-04-15T08:12:02;10.33;;;9.23;;
16892;SDS011;8563;52.242;9.098;2023-04-15T08:14:34;11.50;;;10.23;;
16892;SDS011;8563;52.242;9.098;2023-04-15T08:17:07;11.47;;;10.37;;
16892;SDS011;8563;52.242;9.098;2023-04-15T08:19:40;10.90;;;9.87;;
16892;SDS011;8563;52.242;9.098;2023-04-15T08:22:12;10.47;;;9.47;;
16892;SDS011;8563;52.242;9.098;2023-04-15T08:24:45;11.00;;;9.90;;
16892;SDS011;8563;52.242;9.098;2023-04-15T08:27:17;12.33;;;11.13;;
16892;SDS011;8563;52.242;9.098;2023-04-15T08:29:49;10.77;;;9.67;;
16892;SDS011;8563;52.242;9.098;2023-04-15T08:32:22;11.83;;;10.73;;
16892;SDS011;8563;52.242;9.098;2023-04-15T08:34:56;12.70;;;11.40;;
16892;SDS011;8563;52.242;9.098;2023-04-15T08:37:29;12.33;;;11.10;;
16892;SDS011;8563;52.242;9.098;2023-04-15T08:40:02;11.63;;;10.53;;
16892;SDS011;8563;52.242;9.098;2023-04-15T08:42:35;11.97;;;10.77;;
16892;SDS011;8563;52.242;9.098;2023-04-15T08:45:14;11.87;;;10.67;;
16892;SDS011;8563;52.242;9.098;2023-04-15T08:47:49;12.63;;;11.43;;
16892;SDS011;8563;52.242;9.098;2023-04-15T08:50:27;12.73;;;11.43;;
16892;SDS011;8563;52.242;9.098;2023-04-15T08:53:02;13.47;;;12.03;;
16892;SDS011;8563;52.242;9.098;2023-04-15T08:55:35;15.33;;;12.13;;
16892;SDS011;8563;52.242;9.098;2023-04-15T08:58:10;14.30;;;12.80;;
16892;SDS011;8563;52.242;9.098;2023-04-15T09:00:44;11.80;;;10.67;;
16892;SDS011;8563;52.242;9.098;2023-04-15T09:03:17;11.17;;;10.07;;
16892;SDS011;8563;52.242;9.098;2023-04-15T09:05:52;12.33;;;11.13;;
16892;SDS011;8563;52.242;9.098;2023-04-15T09:08:24;14.03;;;12.63;;
16892;SDS011;8563;52.242;9.098;2023-04-15T09:10:57;14.53;;;13.03;;
16892;SDS011;8563;52.242;9.098;2023-04-15T09:13:29;14.73;;;13.23;;
16892;SDS011;8563;52.242;9.098;2023-04-15T09:16:02;14.17;;;12.73;;
16892;SDS011;8563;52.242;9.098;2023-04-15T09:18:37;13.43;;;12.07;;
16892;SDS011;8563;52.242;9.098;2023-04-15T09:21:12;15.20;;;13.70;;
16892;SDS011;8563;52.242;9.098;2023-04-15T09:23:53;13.50;;;12.20;;
16892;SDS011;8563;52.242;9.098;2023-04-15T09:26:30;14.33;;;12.80;;
16892;SDS011;8563;52.242;9.098;2023-04-15T09:29:03;13.87;;;12.53;;
16892;SDS011;8563;52.242;9.098;2023-04-15T09:31:37;13.83;;;11.40;;
16892;SDS011;8563;52.242;9.098;2023-04-15T09:34:09;12.37;;;11.13;;
16892;SDS011;8563;52.242;9.098;2023-04-15T09:36:52;13.43;;;12.03;;
16892;SDS011;8563;52.242;9.098;2023-04-15T09:39:25;12.03;;;10.93;;
16892;SDS011;8563;52.242;9.098;2023-04-15T09:42:04;13.53;;;12.23;;
16892;SDS011;8563;52.242;9.098;2023-04-15T09:44:37;14.03;;;12.73;;
16892;SDS011;8563;52.242;9.098;2023-04-15T09:47:11;13.67;;;12.37;;
16892;SDS011;8563;52.242;9.098;2023-04-15T09:49:58;13.40;;;12.10;;
16892;SDS011;8563;52.242;9.098;2023-04-15T09:52:32;15.27;;;13.87;;
16892;SDS011;8563;52.242;9.098;2023-04-15T09:55:12;14.30;;;12.90;;
16892;SDS011;8563;52.242;9.098;2023-04-15T09:57:46;13.20;;;11.80;;
16892;SDS011;8563;52.242;9.098;2023-04-15T10:00:18;13.27;;;12.03;;
16892;SDS011;8563;52.242;9.098;2023-04-15T10:02:50;13.43;;;12.17;;
16892;SDS011;8563;52.242;9.098;2023-04-15T10:05:23;13.33;;;11.93;;
16892;SDS011;8563;52.242;9.098;2023-04-15T10:07:57;12.70;;;11.50;;
16892;SDS011;8563;52.242;9.098;2023-04-15T10:10:29;13.47;;;12.17;;
16892;SDS011;8563;52.242;9.098;2023-04-15T10:13:02;15.07;;;13.63;;
16892;SDS011;8563;52.242;9.098;2023-04-15T10:15:35;13.43;;;12.27;;
16892;SDS011;8563;52.242;9.098;2023-04-15T10:18:08;12.93;;;11.73;;
16892;SDS011;8563;52.242;9.098;2023-04-15T10:20:42;12.67;;;11.47;;
16892;SDS011;8563;52.242;9.098;2023-04-15T10:23:16;12.23;;;11.10;;
16892;SDS011;8563;52.242;9.098;2023-04-15T10:25:50;11.80;;;10.80;;
16892;SDS011;8563;52.242;9.098;2023-04-15T10:28:23;10.37;;;9.47;;
16892;SDS011;8563;52.242;9.098;2023-04-15T10:30:56;12.47;;;11.33;;
16892;SDS011;8563;52.242;9.098;2023-04-15T10:33:29;11.77;;;10.67;;
16892;SDS011;8563;52.242;9.098;2023-04-15T10:36:03;10.40;;;9.50;;
16892;SDS011;8563;52.242;9.098;2023-04-15T10:38:39;10.50;;;9.50;;
16892;SDS011;8563;52.242;9.098;2023-04-15T10:41:16;10.20;;;9.30;;
16892;SDS011;8563;52.242;9.098;2023-04-15T10:43:51;10.90;;;10.00;;
16892;SDS011;8563;52.242;9.098;2023-04-15T10:46:33;11.30;;;10.23;;
16892;SDS011;8563;52.242;9.098;2023-04-15T10:49:07;9.83;;;8.93;;
16892;SDS011;8563;52.242;9.098;2023-04-15T10:51:42;8.87;;;8.07;;
16892;SDS011;8563;52.242;9.098;2023-04-15T10:54:30;9.77;;;8.97;;
16892;SDS011;8563;52.242;9.098;2023-04-15T10:57:12;9.43;;;8.63;;
16892;SDS011;8563;52.242;9.098;2023-04-15T11:02:41;9.43;;;8.53;;
16892;SDS011;8563;52.242;9.098;2023-04-15T11:05:15;9.03;;;8.23;;
16892;SDS011;8563;52.242;9.098;2023-04-15T11:07:49;7.97;;;7.27;;
16892;SDS011;8563;52.242;9.098;2023-04-15T11:13:25;7.37;;;6.70;;
16892;SDS011;8563;52.242;9.098;2023-04-15T11:16:01;7.90;;;7.20;;
16892;SDS011;8563;52.242;9.098;2023-04-15T11:18:34;7.43;;;6.83;;
16892;SDS011;8563;52.242;9.098;2023-04-15T11:21:07;7.67;;;6.97;;
16892;SDS011;8563;52.242;9.098;2023-04-15T11:23:40;7.60;;;6.97;;
16892;SDS011;8563;52.242;9.098;2023-04-15T11:26:17;7.00;;;6.37;;
16892;SDS011;8563;52.242;9.098;2023-04-15T11:28:50;7.40;;;6.80;;
16892;SDS011;8563;52.242;9.098;2023-04-15T11:31:22;7.50;;;6.90;;
16892;SDS011;8563;52.242;9.098;2023-04-15T11:33:58;7.27;;;6.57;;
16892;SDS011;8563;52.242;9.098;2023-04-15T11:36:32;7.90;;;7.20;;
16892;SDS011;8563;52.242;9.098;2023-04-15T11:39:05;7.40;;;6.80;;
16892;SDS011;8563;52.242;9.098;2023-04-15T11:41:41;7.30;;;6.63;;
16892;SDS011;8563;52.242;9.098;2023-04-15T11:44:16;7.03;;;6.43;;
16892;SDS011;8563;52.242;9.098;2023-04-15T11:46:49;7.63;;;6.93;;
16892;SDS011;8563;52.242;9.098;2023-04-15T11:49:25;7.30;;;6.70;;
16892;SDS011;8563;52.242;9.098;2023-04-15T11:51:58;8.03;;;7.33;;
16892;SDS011;8563;52.242;9.098;2023-04-15T11:54:31;8.00;;;7.30;;
16892;SDS011;8563;52.242;9.098;2023-04-15T11:57:04;7.97;;;7.27;;
16892;SDS011;8563;52.242;9.098;2023-04-15T11:59:40;8.03;;;7.33;;
16892;SDS011;8563;52.242;9.098;2023-04-15T12:02:13;8.33;;;7.53;;
16892;SDS011;8563;52.242;9.098;2023-04-15T12:04:45;9.20;;;8.37;;
16892;SDS011;8563;52.242;9.098;2023-04-15T12:07:17;9.00;;;8.20;;
16892;SDS011;8563;52.242;9.098;2023-04-15T12:09:53;9.60;;;8.70;;
16892;SDS011;8563;52.242;9.098;2023-04-15T12:12:28;9.13;;;8.33;;
16892;SDS011;8563;52.242;9.098;2023-04-15T12:15:00;8.97;;;8.17;;
16892;SDS011;8563;52.242;9.098;2023-04-15T12:17:33;10.00;;;9.00;;
16892;SDS011;8563;52.242;9.098;2023-04-15T12:20:05;9.37;;;8.57;;
16892;SDS011;8563;52.242;9.098;2023-04-15T12:22:38;10.23;;;9.33;;
16892;SDS011;8563;52.242;9.098;2023-04-15T12:25:11;10.50;;;9.50;;
16892;SDS011;8563;52.242;9.098;2023-04-15T12:27:51;11.33;;;10.23;;
16892;SDS011;8563;52.242;9.098;2023-04-15T12:30:23;11.47;;;10.37;;
16892;SDS011;8563;52.242;9.098;2023-04-15T12:32:56;10.73;;;9.63;;
16892;SDS011;8563;52.242;9.098;2023-04-15T12:35:28;11.63;;;10.43;;
16892;SDS011;8563;52.242;9.098;2023-04-15T12:38:01;11.70;;;10.67;;
16892;SDS011;8563;52.242;9.098;2023-04-15T12:40:33;12.93;;;11.73;;
16892;SDS011;8563;52.242;9.098;2023-04-15T12:43:07;12.17;;;10.97;;
16892;SDS011;8563;52.242;9.098;2023-04-15T12:45:39;14.70;;;12.37;;
16892;SDS011;8563;52.242;9.098;2023-04-15T12:48:11;13.57;;;12.23;;
16892;SDS011;8563;52.242;9.098;2023-04-15T12:50:43;13.77;;;12.27;;
16892;SDS011;8563;52.242;9.098;2023-04-15T12:53:16;13.40;;;12.07;;
16892;SDS011;8563;52.242;9.098;2023-04-15T12:55:48;16.67;;;14.20;;
16892;SDS011;8563;52.242;9.098;2023-04-15T12:58:21;16.10;;;14.37;;
16892;SDS011;8563;52.242;9.098;2023-04-15T13:00:53;14.97;;;13.50;;
16892;SDS011;8563;52.242;9.098;2023-04-15T13:03:26;17.43;;;15.03;;
16892;SDS011;8563;52.242;9.098;2023-04-15T13:05:58;14.57;;;13.07;;
16892;SDS011;8563;52.242;9.098;2023-04-15T13:08:31;15.60;;;14.00;;
16892;SDS011;8563;52.242;9.098;2023-04-15T13:11:03;16.43;;;14.77;;
16892;SDS011;8563;52.242;9.098;2023-04-15T13:13:37;16.63;;;14.70;;
16892;SDS011;8563;52.242;9.098;2023-04-15T13:16:10;21.40;;;15.17;;
16892;SDS011;8563;52.242;9.098;2023-04-15T13:18:42;14.90;;;13.40;;
16892;SDS011;8563;52.242;9.098;2023-04-15T13:21:15;17.13;;;15.40;;
16892;SDS011;8563;52.242;9.098;2023-04-15T13:23:48;19.33;;;14.97;;
16892;SDS011;8563;52.242;9.098;2023-04-15T13:26:20;17.10;;;15.40;;
16892;SDS011;8563;52.242;9.098;2023-04-15T13:28:54;17.57;;;15.87;;
16892;SDS011;8563;52.242;9.098;2023-04-15T13:31:26;16.20;;;14.50;;
16892;SDS011;8563;52.242;9.098;2023-04-15T13:33:58;18.97;;;15.60;;
16892;SDS011;8563;52.242;9.098;2023-04-15T13:36:31;20.73;;;16.93;;
16892;SDS011;8563;52.242;9.098;2023-04-15T13:39:03;18.70;;;16.50;;
16892;SDS011;8563;52.242;9.098;2023-04-15T13:41:35;19.63;;;16.10;;
16892;SDS011;8563;52.242;9.098;2023-04-15T13:44:09;19.57;;;16.80;;
16892;SDS011;8563;52.242;9.098;2023-04-15T13:46:41;19.43;;;16.73;;
16892;SDS011;8563;52.242;9.098;2023-04-15T13:49:13;22.57;;;19.00;;
16892;SDS011;8563;52.242;9.098;2023-04-15T13:51:45;21.70;;;18.20;;
16892;SDS011;8563;52.242;9.098;2023-04-15T13:54:18;23.27;;;18.60;;
16892;SDS011;8563;52.242;9.098;2023-04-15T13:56:50;21.43;;;19.10;;
16892;SDS011;8563;52.242;9.098;2023-04-15T13:59:24;17.67;;;15.70;;
16892;SDS011;8563;52.242;9.098;2023-04-15T14:01:56;22.20;;;18.83;;
16892;SDS011;8563;52.242;9.098;2023-04-15T14:04:29;21.43;;;17.87;;
16892;SDS011;8563;52.242;9.098;2023-04-15T14:07:02;24.10;;;17.90;;
16892;SDS011;8563;52.242;9.098;2023-04-15T14:09:34;25.63;;;19.10;;
16892;SDS011;8563;52.242;9.098;2023-04-15T14:12:06;23.10;;;19.27;;
16892;SDS011;8563;52.242;9.098;2023-04-15T14:14:40;22.17;;;18.90;;
16892;SDS011;8563;52.242;9.098;2023-04-15T14:17:13;24.00;;;20.03;;
16892;SDS011;8563;52.242;9.098;2023-04-15T14:19:45;24.43;;;19.10;;
16892;SDS011;8563;52.242;9.098;2023-04-15T14:22:17;29.30;;;21.77;;
16892;SDS011;8563;52.242;9.098;2023-04-15T14:24:49;29.70;;;21.83;;
16892;SDS011;8563;52.242;9.098;2023-04-15T14:27:24;27.13;;;21.60;;
16892;SDS011;8563;52.242;9.098;2023-04-15T14:29:58;34.30;;;22.33;;
16892;SDS011;8563;52.242;9.098;2023-04-15T14:32:30;34.93;;;23.97;;
16892;SDS011;8563;52.242;9.098;2023-04-15T14:35:03;38.47;;;22.80;;
16892;SDS011;8563;52.242;9.098;2023-04-15T14:37:35;39.43;;;24.03;;
16892;SDS011;8563;52.242;9.098;2023-04-15T14:40:08;33.33;;;21.80;;
16892;SDS011;8563;52.242;9.098;2023-04-15T14:42:40;42.07;;;26.63;;
16892;SDS011;8563;52.242;9.098;2023-04-15T14:45:14;45.83;;;24.93;;
16892;SDS011;8563;52.242;9.098;2023-04-15T14:47:46;35.87;;;23.27;;
16892;SDS011;8563;52.242;9.098;2023-04-15T14:50:18;41.67;;;22.97;;
16892;SDS011;8563;52.242;9.098;2023-04-15T14:52:51;45.23;;;25.40;;
16892;SDS011;8563;52.242;9.098;2023-04-15T14:55:23;45.17;;;26.73;;
16892;SDS011;8563;52.242;9.098;2023-04-15T14:57:56;50.53;;;27.70;;
16892;SDS011;8563;52.242;9.098;2023-04-15T15:00:29;43.30;;;26.10;;
16892;SDS011;8563;52.242;9.098;2023-04-15T15:03:02;55.63;;;27.43;;
16892;SDS011;8563;52.242;9.098;2023-04-15T15:05:35;32.30;;;23.67;;
16892;SDS011;8563;52.242;9.098;2023-04-15T15:08:08;39.70;;;25.67;;
16892;SDS011;8563;52.242;9.098;2023-04-15T15:10:40;30.47;;;23.40;;
16892;SDS011;8563;52.242;9.098;2023-04-15T15:13:12;37.90;;;26.73;;
16892;SDS011;8563;52.242;9.098;2023-04-15T15:15:46;35.77;;;23.90;;
16892;SDS011;8563;52.242;9.098;2023-04-15T15:18:19;33.90;;;24.40;;
16892;SDS011;8563;52.242;9.098;2023-04-15T15:20:52;34.20;;;25.13;;
16892;SDS011;8563;52.242;9.098;2023-04-15T15:23:24;38.80;;;27.03;;
16892;SDS011;8563;52.242;9.098;2023-04-15T15:25:57;39.80;;;26.87;;